This is the latest recevied weather packets stored in our database for station/object N0HEQ. If no packets are shown the sender has not sent any weather packets the latest 10 day(s).
| Time | Temp. | Humidity | Pressure | Rain* | Wind** | Luminosity | Snow |
|---|---|---|---|---|---|---|---|
| 1777752259 | 21.11° C | 15% | 1022.2 hPa | 0 mm | - | 806 W/m² | - |
| 1777751957 | 21.67° C | 13% | 1022.3 hPa | 0 mm | - | 812 W/m² | - |
| 1777751654 | 20.56° C | 14% | 1022.5 hPa | 0 mm | - | 815 W/m² | - |
| 1777751350 | 20.56° C | 14% | 1022.5 hPa | 0 mm | - | 822 W/m² | - |
| 1777750743 | 20.56° C | 15% | 1022.7 hPa | 0 mm | - | 833 W/m² | - |
| 1777750440 | 19.44° C | 16% | 1022.6 hPa | 0 mm | - | 837 W/m² | - |
| 1777750135 | 20° C | 16% | 1022.7 hPa | 0 mm | - | 840 W/m² | - |
| 1777749833 | 19.44° C | 16% | 1022.7 hPa | 0 mm | - | 844 W/m² | - |
| 1777749530 | 20.56° C | 16% | 1022.8 hPa | 0 mm | - | 844 W/m² | - |
| 1777748925 | 20° C | 16% | 1022.9 hPa | 0 mm | - | 852 W/m² | - |
| 1777748318 | 19.44° C | 17% | 1023.3 hPa | 0 mm | - | 810 W/m² | - |
| 1777748014 | 18.89° C | 18% | 1023.1 hPa | 0 mm | - | 232 W/m² | - |
| 1777747103 | 19.44° C | 16% | 1023.5 hPa | 0 mm | - | 312 W/m² | - |
| 1777741643 | 16.67° C | 21% | 1024.5 hPa | 0 mm | - | 226 W/m² | - |
| 1777741340 | 16.67° C | 20% | 1024.6 hPa | 0 mm | - | 720 W/m² | - |
| 1777739822 | 16.11° C | 20% | 1024.7 hPa | 0 mm | - | 112 W/m² | - |
| 1777738913 | 15.56° C | 23% | 1024.6 hPa | 0 mm | - | 49 W/m² | - |
| 1777738610 | 15.56° C | 23% | 1024.7 hPa | 0 mm | - | 118 W/m² | - |
| 1777738005 | 15° C | 23% | 1024.9 hPa | 0 mm | - | 451 W/m² | - |
| 1777736165 | 13.33° C | 30% | 1024.9 hPa | 0 mm | - | 190 W/m² | - |
| 1777735863 | 13.33° C | 29% | 1025.2 hPa | 0 mm | - | 305 W/m² | - |
| 1777735560 | 12.78° C | 30% | 1025.1 hPa | 0 mm | - | 82 W/m² | - |
| 1777735257 | 12.78° C | 30% | 1025.1 hPa | 0 mm | - | 81 W/m² | - |
| 1777734954 | 12.78° C | 31% | 1025.5 hPa | 0 mm | - | 39 W/m² | - |
| 1777734652 | 12.22° C | 33% | 1025.3 hPa | 0 mm | - | 138 W/m² | - |
* Rain latest hour (hover to see other rain measurements)
** Current wind speed in m/s (hover to see current wind gust speed)